秋田空港

2022/06/01

お見送 秋田空港 2022/5/28 sat

東北絆まつり秋田2022の飛行展示が終わったら、とたんに雨が降ってきて、いそいで駅へ向う。当初計画では、そのまま帰路につくところ、今回の展開地が秋田空港となれば、見送りにいかないと・・ 直近の空港リムジンバスは15時過ぎの空港到着。まあ、間に合うだろうと、掛けてみた。

RJSK 280600Z 25013KT 9999 FEW010 SCT020 BKN080 16/12 Q1002

20220528_rjsk_00ja211j

ターミナルに着いて、駐車場へ 丁度 JAL2174がエアボーン

20220528_rjsk_01bi

今は舗装された駐車場の果てまで歩いていくと、秋田分屯基地が見えます。

20220528_rjsk_02ars

手前にASRとA/G

20220528_rjsk_03ja852a

エプロンも良く見えます。

20220528_rjsk_04ja852a

ANA1833 RJSK-RJCC JA852A DHC8-402Q

20220528_rjsk_05bi

Pさん登場

20220528_rjsk_06ja335j

天候は曇りなれど、墨絵のようなグラデーション

20220528_rjsk_07ja335j

JAL165 RJTT-RJSK JA335J B737-846

20220528_rjsk_08bi

しかし北風が強い。そして寒い、ガクブル。

20220528_rjsk_09ja335j

乗っているお客さんは、ギャラリーに、何事?と思ってるね。

RJSK 280700Z 26014KT 9999 FEW010 SCT020 BKN025 15/11 Q1002

20220528_rjsk_10ja51an

20220528_rjsk_11bi165663

クリアランスをもらって、1番機からタクシーアウト

20220528_rjsk_12bi165663

#1 16-5663 T-4 11SQ BI1

20220528_rjsk_13bi165663

20220528_rjsk_14bi165666

2番手は、無印 16-5666 T-4 11SQ

20220528_rjsk_15bi165666

20220528_rjsk_16bi265690

#3 26-5690 T-4 11SQ

20220528_rjsk_17bi165663

まずは、3機編隊で出発の模様

20220528_rjsk_18bi165663

お手振りタイム

20220528_rjsk_19bi165666

20220528_rjsk_20bi265690

20220528_rjsk_21ja51an

奇跡の対面

20220528_rjsk_22ja51an

ANA408 RJSK-RJTT JA51AN B737-881

20220528_rjsk_23bi

20220528_rjsk_24ja51an

20220528_rjsk_25bi

20220528_rjsk_26bi

オリンピックまでは、ここでスモークのはずですが・・

今は、出さなくなったのかな

###

 

20220528_rjsk_27bi165666

ぎゃーやられた 明るさのない中で、手振れの誤動作。背面の景色にフォーカスしてしまって、肝心の機体がブレる。

20220528_rjsk_28bi

ゆっくりライトターンしてSIDを昇っていきます。

20220528_rjsk_29bi065787

10分ほど後に第2編隊がタクシーアウト

20220528_rjsk_30bi265686

20220528_rjsk_31bi265686

2番機は#4

20220528_rjsk_32bi065787

20220528_rjsk_33bi265686

20220528_rjsk_34bi

おや、今回も3機編隊の模様

20220528_rjsk_35bi265692

#2は、お残りの様

20220528_rjsk_36bi065787

#5 06-5787 T-4 11SQ BI5

20220528_rjsk_37bi265686

#4 26-5686 T-4 11SQ

20220528_rjsk_38bi365694

#6 36-5694 T-4 11SQ

20220528_rjsk_39bi

この斜め後ろが、かわいい

20220528_rjsk_40bi

20220528_rjsk_41bi

20220528_rjsk_42bi065787

気がつかないまま、手振れにやられます。修行が足りん。

20220528_rjsk_43bi

こんな決して良くな天候の中、ありがとうございました。

20220528_rjsk_44bi265692

#2さんは、メンテ中

20220528_rjsk_45ja335j

20220528_rjsk_46ja335j

JAL166 RJSK-RJTT JA335J B737-846

20220528_rjsk_47h184612

救難さんからハンガーイン 18-4612 UH-60J

20220528_rjsk_48bi265692

トーバーがついたまま、放置か。その内格納されるでしょう。バスの時間となったので、ここで離脱。

RJSK 280800Z 25014G24KT 9999 FEW015 SCT020 BKN025 15/12 Q1002

20220528_rjsk_49akita

秋田空港は、なまはげ と

20220528_rjsk_50akita

秋田犬が、あちこちに

20220528_rjsk_51akita

行ってよかった、秋田

領主様も少し考えが変わったようなので、たのみますよ。

 

 

| | コメント (0)

2010/09/22

秋だ 秋田空港 2010/9/10 fri

忘れたころに、整理しながらアップしてます。

秋田港でのブルーインパルスの展示飛行予行の後、8年振りに秋田空港に行ってみました。駐車場が広がって、値付けが変わった以外は、変化がないノンビリした場所です。

20100910_rjsk_ja323j

JALの機体は、すっかり小型化している。

JAL1264 RJSK-RJTT JA323J B738

20100910_rjsk_ja8670

下草が長いのが難点です。

ANA875 RJTT-RJSK JA8670 B763

20100910_rjsk_ja8847

仙台の航大から訓練で飛来。何度かT/Gをして帰っていった。

JA8847 CAC CA90

20100910_rjsk_ja217j

駐車場脇は刈り込んであるが、滑走路よりに残っていて、撮影には支障となった。でも、秋です。

JAL2825 RJCC-RJSK JA217J E170

20100910_rjsk_584562

残り少なくなった警戒塗装のUH60J 

UH60J 58-4562 AKITA-ARS

| | コメント (0) | トラックバック (0)

その他のカテゴリー

BI Boading record aircraft Boading record ship FlightTracking lighthouse NAVAIDS NAVY RJNT LOG SKY MASSAGE US NAVY USMC うみ おか そら てつ アクシデント エアロック チーム室屋 ヘリポート 三沢飛行場 上五島空港 下地島空港 下総飛行場 与論空港 与那国空港 中標津空港 中部国際空港 久米島空港 五島福江空港 仙台空港 伊江島空港 但馬空港 佐賀空港 入間飛行場 八尾空港 八戸飛行場 出雲空港 函館空港 利尻空港 北九州空港 北大東空港 十勝飛行場 千歳飛行場 南大東空港 博物館 厚木飛行場 名古屋飛行場 喜界空港 嘉手納飛行場 場外 壱岐空港 多良間空港 大分空港 大村飛行場 大湊飛行場 大阪国際空港 大館能代空港 天草空港 奄美空港 奥尻空港 宇部山口空港 宇都宮飛行場 宮古空港 宮崎空港 富山空港 対馬空港 小松島飛行場 小松飛行場 屋久島空港 山形空港 岐阜飛行場 岡南飛行場 岡山空港 岩国飛行場 帯広空港 広島空港 広島西飛行場 庄内空港 徳之島空港 徳島飛行場 慶良間空港 成田国際空港 新島空港 新潟空港 新田原飛行場 旭川空港 旭川飛行場 明野飛行場 普天間飛行場 木更津飛行場 札幌飛行場 東京国際空港 松山空港 松島飛行場 松本空港 枕崎飛行場 横田飛行場 沖永良部空港 波照間空港 浜松飛行場 海上保安庁 海上自衛隊 海外 熊本空港 百里飛行場 相馬原飛行場 石垣空港 石見空港 礼文空港 神戸空港 神津島空港 福井空港 福岡空港 福島空港 秋田空港 稚内空港 種子島空港 空撮 立川飛行場 竜ヶ崎飛行場 築城飛行場 粟国空港 美保飛行場 能登空港 舞鶴飛行場 航空自衛隊 芦屋飛行場 花巻空港 調布飛行場 警務消防 那覇空港 釧路空港 長崎空港 関西国際空港 陸上自衛隊 隠岐空港 霞ヶ浦飛行場 霞目飛行場 青森空港 静岡空港 静浜飛行場 飛行場跡 飛行船 鹿児島空港 鹿屋飛行場